Terminal Aerodrome Forecast
Issued by NWS Pueblo, CO

Current Version | Previous Version | Text Only | Print | Product List | Glossary On
Versions: 1 2 3 4 5 6 7 8 9 10 11 12 13 14 15 16 17 18 19 20 21 22 23 24 25 26 27 28 29 30 31 32 33
403
FTUS45 KPUB 310538
TAFALS
TAF
KALS 310538Z 3106/0106 VRB05KT P6SM FEW150
     FM311900 15011KT P6SM VCTS FEW070CB SCT100 BKN130=

USA.gov is the U.S. government's official web portal to all federal, state and local government web resources and services.